Timeline UpdatesTrip UpdatesNews PostsPvt PostsTravel TipsAdmin PostsConv PostsFollowed PostsChat RequestsBlog PostsPNR Posts

Disclaimer
Search
 
 
Wed Jul 30, 2014 00:23:54 ISTHomeTrainsΣChainsAtlasPNRForumGalleryNewsFAQTripsMembersLoginFeedback
No Recent News for this Train
Other Trains in the News **new
Latest...
.
Mon Mar 03, 2014 (11:30AM)
⇐ Return Journey: Train# 13484

13483/Farakka Express (via Faizabad)

Mar 03 2014 (11:30AM)
Change Departure Station:
Change Arrival Station:
Post a Train Travel TipPost a Train Travel Tip **new
Post a Comment/Question/Picture/VideoPost a Comment/Question/Picture/Video
Pantry/Catering
✓ Pantry Car Avbl
✓ Catering Avbl
RSA - Rake Sharing
13413/13414/04031/04032
Rake/Coach Composition
LOCO:PARCEL VAN:SLR:UR:UR:UR:UR:UR:B1:A1:PC:S9:S8:S7:S6:S5:S4:S3:S2:S1:UR:SLR; Author: ✖★hAяѕH °° °°•ⓥⓘⓡDiesel Philic°°•ⓥⓘⓡ
Loco
Loco: [MLDT to LKO] WDM#3A of TKD/LDH shed /TKD WDM#3D...
Read more...
GZB#WAP5/7 [LKO to DLI]
News    PNR    Forum    Time-Table    Availability    Fare Chart    Map    Arr/Dep History    Trips    Gallery    ΣChains    X/O    Timeline    
Travel Time: 2h 30m    3 halts    Distance: 108 km    Avg Speed: 43 km/hr
Type: Mail/Express
Zone: ER/Eastern
Departs @ 19:10 (Avg 25m late)
Platform# 1
S TW F 
Malda Town/MLDT 
Arrives @ 21:40 (Avg 46m late)
Platform# 2
S TW F 
Sahibganj Junction/SBG 

3 halts. 16 intermediate Stations between Malda Town and Sahibganj Junction

Show ALL intermediate Stations  Show Old Time-Table

#CodeStation NameX/OArrivesAvgDepartsAvgHaltPFDay#KmSpeedElevZoneAddress
1MLDT»Malda Town (5)»  -19:10+25110.06430mERDist - Malda, West Bengal
2NFKNew Farakka Junction (3)X  19:43+3419:53+4010m1135.13432mERDist - Murshidabad, West Bengal
3BHWBarharwa Junction (3)X  20:25+3620:29+364m1153.15636mERBarharwa, Jharkhand
4TPHTinpahar Junction (3)  20:47+4220:48+451m1169.84445mERBamangawan, Jharkhand
5SBG•Sahibganj Junction (3)•X  21:40+4621:50+4510m21107.54338mERSahibganj, Jharkhand
6PPTPirpainti (2)  22:23+4822:24+501m--1131.15653mERBhagalpur, Bihar
7CLGKahalgaon (2)O  22:46+5522:47+561m21151.45944mERBhagalpur, Bihar
8SBOSabaur (3)  23:10+1:0423:11+1:061m--1174.02442mERSabour, Bihar
9BGPBhagalpur Junction (6)X  23:30+5923:40+5710m--1181.57949mERBhagalpur, Bihar
10SGGSultanGanj (3)  23:59+1:0300:01+1:032m--1206.44542mERSultanganj, Bihar
11BUPBariarpur (3)  00:25+5700:26+581m--2224.44542mERMunger, Bihar
12JMPJamalpur Junction (4)X  00:41+5800:51+5710m--2235.56959mERJamalpur 06344-243101, Bihar
13AHAAbhaipur  01:10+1:0401:11+1:051m--2257.42252mERAbhaipur, Bihar
14KIULKiul Junction (5)  02:15+3802:25+4210m--2280.45853mECRDist. Lakhisarai, Bihar
15BRYABarhiya (3)O  02:42+5702:43+591m--2296.85647mECRBarahiya, Bihar
16MKAMokama Junction (3)  03:02+1:0403:04+1:052m--2314.55048mECRPatna, Bihar
17BARHBarh (3)X  03:35+5603:36+591m--2340.45849mECRBarh, Bihar
18BKPBakhtiyarpur Junction (5)  03:55+1:0103:59+594m--2358.78651mECRPatna, Bihar
19FUTFatwa (6)  04:15+1:0904:16+1:121m--2381.71953mECRPatna, Bihar
20PNCPatna Saheb (3)  04:55+4804:56+531m--2393.92959mECRPatna, Bihar
21RJPBRajendra Nagar Bihar (4)  05:11+5305:13+532m--2401.22255mECRPatna 800001, Bihar
22PNBEPatna Junction (10)X  05:20+5805:30+1:0110m--2403.83857mECRPatna 800001, Bihar
23DNRDanapur (5)X  05:45+1:0905:55+1:1010m--2413.28758mECRKhagaul, Bihar
24BTABihta (2)X  06:07+1:1906:08+1:211m--2430.55862mECRDistt: Patna, Bihar
25ARAAra Junction (3)  06:31+1:2206:33+1:232m--2452.79263mECRarrah( 06182-233411), Bihar
26BEABihiya (3)  06:47+1:3006:48+1:311m--2474.17467mECRBehea, Bihar
27RPRRaghunathpur (4)  07:00+1:3407:01+1:361m--2488.97469mECRRaghunathpur, Bihar
28DUREDumraon (3)  07:14+1:4007:15+1:411m--2504.94970mECRDumraon, Bihar
29BXRBuxar (3)X  07:35+1:3907:40+1:385m--2521.27367mECRBuxar, Bihar
30CSAChausa (2)X  07:49+1:4007:50+1:421m--2532.24368mECRState Highway 14, Bihar
31GMRGahmar (2)  08:03+1:4108:04+1:421m--2541.48268mECRDistt: Ghazipur, Uttar Pradesh
32BWHBhadaura (2)X  08:10+1:4508:12+1:462m--2549.64769mECRGhazipur, Uttar Pradesh
33DLNDildarnagar Junction (2)  08:22+1:4608:24+1:462m--2557.48172mECRDildarnagar, Uttar Pradesh
34ZNAZamania (2)  08:34+1:5208:35+1:551m--2570.92977mECRGhazipur, Uttar Pradesh
35MGSMughal Sarai Junction (8)  10:05+1:0610:20+1:0615m32615.12583mECRMughalsarai 232101, Uttar Pradesh
36BSBVaranasi Junction (9)X  11:00+1:2311:20+1:2320m82631.67382mNRVaranasi 221002, Uttar Pradesh
37JLLJalalGanj (2)  11:52+1:4211:53+1:431m--2670.83187mNRJalalganj Railway Station, Uttar Pradesh
38ZBDZafarabad Junction (4)X  12:16+1:3712:17+1:431m--2682.81683mNRNational Highway 56, Uttar Pradesh
39JNUJaunpur Junction (5)X  12:42+1:3012:43+1:341m12689.23183mNRJaunpur, Uttar Pradesh
40SHGShahganj Junction (4)  13:47+1:1913:51+1:234m--2722.55890mNRShahganj, Uttar Pradesh
41MLPRMalipur (2)  14:17+1:2914:18+1:321m--2747.56492mNRMalipur, Uttar Pradesh
42ABPAkbarpur (2)  14:36+1:3514:40+1:364m12766.77492mNRAkbarpur, Uttar Pradesh
43GGJGoshainGanj (3)  14:58+1:4714:59+1:471m--2788.96898mNRGoshainganj, Uttar Pradesh
44AYAyodhya Junction (3)  15:27+1:4715:28+1:481m12820.62598mNRAyodhya, Uttar Pradesh
45ACNDAcharya Narendra Dev Nagar  15:39+1:4615:40+1:511m--2825.17104mNRFaizabad, Uttar Pradesh
46FDFaizabad Junction (5)X  16:00+1:4116:05+1:415m--2827.357104mNRFaizabad, Uttar Pradesh
47SLWSohwalX  16:21+1:4616:22+1:461m--2842.572107mNRFaizabad Rd, Uttar Pradesh
48RDLRudauli (2)  16:41+1:5316:42+1:531m12865.466112mNRRudauli, Uttar Pradesh
49DYDDaryabad  17:03+1:5617:04+1:571m22888.551116mNRFaizabad Rd, Uttar Pradesh
50BBKBarabanki Junction (4)X  17:49+1:4917:50+1:521m12926.521122mNRPin-225001, Uttar Pradesh
51LKOLucknow Charbagh (9)X19:10+1:2519:35+1:2425m72955.167123mNR226004, Uttar Pradesh
52ONUnnao Junction (5)X  20:24+1:3820:25+1:401m221009.726129mNRUnnao, Uttar Pradesh
53CNBKanpur Central (10)X  21:05+1:3321:15+1:3810m721027.186128mNCRKANPUR-208 001, Uttar Pradesh
54ETWEtawah (5)X  22:52+2:0522:53+1:541m221166.481154mNCRDistt. Etawah, Uttar Pradesh
55SKBShikohabad Junction (4)  23:34+2:0123:35+2:041m321221.854166mNCRDistrict Firozabad, Uttar Pradesh
56FZDFirozabad (4)  23:57+1:5923:58+2:011m321241.731164mNCRFirozabad, Uttar Pradesh
57TDLTundla Junction (5)X  00:30+1:5300:38+1:538m231258.270167mNCRDistt.Firozabad, Uttar Pradesh
58HRSHathras Junction (3)  01:19+1:5801:20+2:011m--31306.286183mNCRMahamaya Nagar(05722-242803), Uttar Pradesh
59ALJNAligarh Junction (4)X  01:41+2:0601:46+2:075m331336.487192mNCRAligarh, Uttar Pradesh
60KRJKhurja Junction (4)  02:16+2:2202:21+2:205m--31379.948199mNCRBulandshahr, Uttar Pradesh
61GZBGhaziabad Junction (6)  03:40+1:5003:42+1:502m331442.640217mNRGhaziabad, Uttar Pradesh
62SBBSahibabad Junction (5)  03:52+1:4103:53+1:411m--31449.235209mNRGhaziabad, Uttar Pradesh
63DSAShahdara Junction (4)  04:05+1:1704:06+1:171m--31456.216212mNRCircular Rd, Delhi NCT
64DLIOld Delhi Junction (16)  04:30+1:57-1031462.5-219mNRNear Chandni Chowk Metro Station, Delhi NCT
Scroll to Top
Scroll to Bottom